createdAt,value
2019-02-22T00:01:21.145Z,96913.40
2019-02-22T00:03:47.756Z,96896.22
2019-02-22T00:06:13.965Z,96890.96
2019-02-22T00:08:41.840Z,96894.44
2019-02-22T00:11:08.905Z,96891.42
2019-02-22T00:13:35.899Z,96903.62
2019-02-22T00:16:02.094Z,96908.03
2019-02-22T00:18:28.231Z,96899.80
2019-02-22T00:20:56.811Z,96917.84
2019-02-22T00:23:24.322Z,96905.64
2019-02-22T00:25:50.524Z,96913.52
2019-02-22T00:28:19.793Z,96922.36
2019-02-22T00:30:48.885Z,96912.59
2019-02-22T00:33:16.832Z,96912.20
2019-02-22T00:35:43.032Z,96913.68
2019-02-22T00:38:10.859Z,96923.80
2019-02-22T00:40:37.044Z,96916.30
2019-02-22T00:43:03.152Z,96922.48
2019-02-22T00:45:29.369Z,96921.56
2019-02-22T00:47:55.488Z,96924.53
2019-02-22T00:50:21.677Z,96920.24
2019-02-22T00:52:51.687Z,96922.27
2019-02-22T00:55:17.901Z,96918.36
2019-02-22T00:57:44.829Z,96918.45
2019-02-22T01:00:11.034Z,96912.64
2019-02-22T01:02:37.203Z,96924.92
2019-02-22T01:05:05.893Z,96922.38
2019-02-22T01:07:32.021Z,96924.55
2019-02-22T01:09:58.220Z,96914.31
2019-02-22T01:12:24.318Z,96921.37
2019-02-22T01:14:53.733Z,96930.45
2019-02-22T01:17:22.719Z,96917.09
2019-02-22T01:19:48.932Z,96922.08
2019-02-22T01:22:15.378Z,96918.13
2019-02-22T01:24:41.576Z,96921.84
2019-02-22T01:27:07.735Z,96926.17
2019-02-22T01:29:33.944Z,96928.80
2019-02-22T01:32:04.872Z,96924.00
2019-02-22T01:34:31.089Z,96921.84
2019-02-22T01:36:57.201Z,96926.05
2019-02-22T01:39:23.939Z,96924.36
2019-02-22T01:41:50.081Z,96924.24
2019-02-22T01:44:17.833Z,96926.88
2019-02-22T01:46:44.087Z,96934.75
2019-02-22T01:49:10.345Z,96932.97
2019-02-22T01:51:37.948Z,96931.89
2019-02-22T01:54:05.893Z,96923.20
2019-02-22T01:56:34.725Z,96938.23
2019-02-22T01:59:04.751Z,96932.62
2019-02-22T02:01:31.463Z,96937.37
2019-02-22T02:03:57.916Z,96942.91
2019-02-22T02:06:24.194Z,96932.39
2019-02-22T02:08:50.389Z,96930.23
2019-02-22T02:11:19.753Z,96930.34
2019-02-22T02:13:45.967Z,96938.23
2019-02-22T02:16:12.078Z,96941.81
2019-02-22T02:18:38.284Z,96944.92
2019-02-22T02:21:04.423Z,96952.09
2019-02-22T02:23:31.915Z,96950.78
2019-02-22T02:25:58.084Z,96950.41
2019-02-22T02:28:24.315Z,96958.40
2019-02-22T02:30:50.511Z,96953.77
2019-02-22T02:33:18.031Z,96955.55
2019-02-22T02:35:45.611Z,96958.67
2019-02-22T02:38:14.815Z,96958.55
2019-02-22T02:40:43.974Z,96962.22
2019-02-22T02:43:10.973Z,96964.62
2019-02-22T02:45:37.215Z,96968.56
2019-02-22T02:48:03.457Z,96960.69
2019-02-22T02:50:33.487Z,96968.95
2019-02-22T02:52:59.701Z,96964.05
2019-02-22T02:55:40.682Z,96964.05
2019-02-22T02:58:06.870Z,96967.87
2019-02-22T03:00:33.015Z,96969.30
2019-02-22T03:02:59.154Z,96964.39
2019-02-22T03:05:31.712Z,96965.25
2019-02-22T03:08:02.902Z,96967.98
2019-02-22T03:10:31.483Z,96971.70
2019-02-22T03:12:57.209Z,96982.33
2019-02-22T03:15:25.828Z,96983.64
2019-02-22T03:17:54.912Z,96979.58
2019-02-22T03:20:21.046Z,96985.69
2019-02-22T03:22:47.197Z,96993.08
2019-02-22T03:25:13.402Z,96993.34
2019-02-22T03:27:40.603Z,96992.84
2019-02-22T03:30:08.846Z,96993.45
2019-02-22T03:32:37.009Z,96997.17
2019-02-22T03:35:05.315Z,96989.06
2019-02-22T03:37:32.609Z,97002.05
2019-02-22T03:40:00.976Z,97000.62
2019-02-22T03:42:30.903Z,97010.91
2019-02-22T03:44:59.919Z,97006.84
2019-02-22T03:47:26.012Z,97008.39
2019-02-22T03:49:52.714Z,97007.34
2019-02-22T03:52:25.714Z,97011.64
2019-02-22T03:54:51.952Z,97015.11
2019-02-22T03:57:18.052Z,97015.94
2019-02-22T03:59:44.278Z,97027.87
2019-02-22T04:02:10.496Z,97025.25
2019-02-22T04:04:38.011Z,97029.57
2019-02-22T04:07:04.213Z,97035.06
2019-02-22T04:09:30.371Z,97028.72
2019-02-22T04:11:56.611Z,97031.81
2019-02-22T04:14:22.855Z,97031.00
2019-02-22T04:16:49.059Z,97048.08
2019-02-22T04:19:18.209Z,97052.02
2019-02-22T04:21:47.023Z,97042.71
2019-02-22T04:24:14.007Z,97044.14
2019-02-22T04:26:43.933Z,97032.31
2019-02-22T04:29:10.255Z,97045.56
2019-02-22T04:31:36.378Z,97044.72
2019-02-22T04:34:02.652Z,97049.97
2019-02-22T04:36:28.853Z,97046.72
2019-02-22T04:38:54.940Z,97043.74
2019-02-22T04:41:21.116Z,97054.61
2019-02-22T04:43:50.848Z,97049.84
2019-02-22T04:46:18.282Z,97059.75
2019-02-22T04:48:48.233Z,97054.25
2019-02-22T04:51:17.445Z,97063.34
2019-02-22T04:53:43.697Z,97053.67
2019-02-22T04:56:09.908Z,97059.86
2019-02-22T04:58:36.036Z,97058.55
2019-02-22T05:01:02.222Z,97063.69
2019-02-22T05:03:28.317Z,97060.71
2019-02-22T05:05:54.576Z,97065.73
2019-02-22T05:08:20.670Z,97063.67
2019-02-22T05:10:52.855Z,97072.77
2019-02-22T05:13:20.006Z,97073.96
2019-02-22T05:15:46.259Z,97072.65
2019-02-22T05:18:12.412Z,97073.61
2019-02-22T05:20:38.643Z,97083.27
2019-02-22T05:23:07.454Z,97080.52
2019-02-22T05:25:32.847Z,97083.96
2019-02-22T05:27:59.152Z,97086.97
2019-02-22T05:30:25.399Z,97086.23
2019-02-22T05:32:51.758Z,97087.79
2019-02-22T05:35:18.023Z,97087.79
2019-02-22T05:37:44.267Z,97096.64
2019-02-22T05:40:10.464Z,97103.09
2019-02-22T05:42:39.539Z,97101.89
2019-02-22T05:45:05.938Z,97105.94
2019-02-22T05:47:32.043Z,97109.42
2019-02-22T05:49:58.241Z,97112.64
2019-02-22T05:52:24.382Z,97111.33
2019-02-22T05:54:50.747Z,97124.86
2019-02-22T05:57:17.945Z,97131.78
2019-02-22T05:59:44.104Z,97138.00
2019-02-22T06:02:10.389Z,97135.94
2019-02-22T06:04:37.261Z,97146.45
2019-02-22T06:07:03.538Z,97143.09
2019-02-22T06:09:29.766Z,97151.36
2019-02-22T06:11:59.572Z,97153.48
2019-02-22T06:14:26.436Z,97166.05
2019-02-22T06:16:52.890Z,97168.68
2019-02-22T06:19:20.705Z,97174.68
2019-02-22T06:21:47.340Z,97180.51
2019-02-22T06:24:14.234Z,97186.34
2019-02-22T06:26:40.810Z,97194.83
2019-02-22T06:29:07.041Z,97199.23
2019-02-22T06:31:34.831Z,97201.11
2019-02-22T06:34:04.143Z,97207.33
2019-02-22T06:36:30.221Z,97212.13
2019-02-22T06:38:56.421Z,97219.62
2019-02-22T06:41:24.000Z,97229.31
2019-02-22T06:43:50.217Z,97234.67
2019-02-22T06:46:17.977Z,97238.72
2019-02-22T06:48:44.424Z,97251.01
2019-02-22T06:51:10.578Z,97254.84
2019-02-22T06:53:39.959Z,97260.73
2019-02-22T06:56:07.971Z,97258.57
2019-02-22T06:58:34.296Z,97265.70
2019-02-22T07:01:00.404Z,97270.25
2019-02-22T07:03:26.615Z,97271.17
2019-02-22T07:05:52.717Z,97276.81
2019-02-22T07:08:19.014Z,97280.27
2019-02-22T07:10:47.151Z,97287.69
2019-02-22T07:13:13.383Z,97290.88
2019-02-22T07:15:39.485Z,97304.13
2019-02-22T07:18:05.680Z,97308.45
2019-02-22T07:20:38.234Z,97311.91
2019-02-22T07:23:04.871Z,97312.75
2019-02-22T07:25:31.093Z,97323.48
2019-02-22T07:27:57.310Z,97321.41
2019-02-22T07:30:23.952Z,97332.87
2019-02-22T07:32:54.352Z,97332.87
2019-02-22T07:35:20.732Z,97332.03
2019-02-22T07:37:49.127Z,97335.61
2019-02-22T07:40:15.262Z,97337.77
2019-02-22T07:42:43.084Z,97344.34
2019-02-22T07:45:09.515Z,97348.39
2019-02-22T07:47:35.698Z,97360.64
2019-02-22T07:50:01.904Z,97353.81
2019-02-22T07:52:28.682Z,97361.34
2019-02-22T07:54:55.822Z,97366.20
2019-02-22T07:57:22.387Z,97368.83
2019-02-22T07:59:49.020Z,97377.20
2019-02-22T08:02:15.511Z,97380.19
2019-02-22T08:04:42.071Z,97377.92
2019-02-22T08:07:08.399Z,97386.06
2019-02-22T08:09:34.734Z,97391.53
2019-02-22T08:12:00.982Z,97387.84
2019-02-22T08:14:32.329Z,97392.09
2019-02-22T08:16:58.568Z,97397.89
2019-02-22T08:19:35.360Z,97401.83
2019-02-22T08:22:11.280Z,97407.08
2019-02-22T08:24:42.169Z,97404.95
2019-02-22T08:27:12.307Z,97400.44
2019-02-22T08:42:39.814Z,97441.63
2019-02-22T08:45:10.060Z,97445.28
2019-02-22T08:47:36.520Z,97443.68
2019-02-22T08:50:04.328Z,97444.89
2019-02-22T08:52:30.637Z,97448.68
2019-02-22T08:54:56.884Z,97454.39
2019-02-22T08:57:23.255Z,97456.30
2019-02-22T08:59:49.496Z,97463.23
2019-02-22T09:02:19.402Z,97467.84
2019-02-22T09:04:47.058Z,97474.25
2019-02-22T09:07:13.447Z,97473.89
2019-02-22T09:09:39.715Z,97472.58
2019-02-22T09:12:06.048Z,97480.66
2019-02-22T09:14:40.284Z,97483.50
2019-02-22T09:17:09.198Z,97492.79
2019-02-22T09:19:35.692Z,97496.05
2019-02-22T09:22:01.932Z,97499.63
2019-02-22T09:24:28.156Z,97504.88
2019-02-22T09:26:54.259Z,97498.52
2019-02-22T09:29:20.505Z,97507.70
2019-02-22T09:31:46.706Z,97503.77
2019-02-22T09:34:13.095Z,97511.28
2019-02-22T09:36:40.334Z,97511.91
2019-02-22T09:39:06.544Z,97509.64
2019-02-22T09:41:33.470Z,97516.34
2019-02-22T09:44:02.750Z,97525.14
2019-02-22T09:46:28.887Z,97523.31
2019-02-22T09:48:55.109Z,97531.38
2019-02-22T09:51:21.204Z,97546.78
2019-02-22T09:53:51.003Z,97541.18
2019-02-22T09:56:17.465Z,97546.64
2019-02-22T09:58:48.127Z,97547.30
2019-02-22T10:01:14.328Z,97562.76
2019-02-22T10:03:40.529Z,97564.67
2019-02-22T10:06:06.688Z,97565.86
2019-02-22T10:08:35.559Z,97562.97
2019-02-22T10:11:01.658Z,97573.83
2019-02-22T10:13:28.011Z,97582.09
2019-02-22T10:15:54.376Z,97584.54
2019-02-22T10:18:21.558Z,97588.84
2019-02-22T10:20:48.105Z,97589.78
2019-02-22T10:23:14.357Z,97598.67
2019-02-22T10:25:41.367Z,97599.25
2019-02-22T10:28:17.322Z,97613.02
2019-02-22T10:30:38.812Z,97606.91
2019-02-22T10:33:05.863Z,97613.02
2019-02-22T10:35:32.898Z,97614.23
2019-02-22T10:38:00.306Z,97627.14
2019-02-22T10:40:29.418Z,97631.34
2019-02-22T10:42:57.229Z,97640.25
2019-02-22T10:45:24.243Z,97636.95
2019-02-22T10:47:51.340Z,97644.17
2019-02-22T10:50:17.545Z,97647.53
2019-02-22T10:52:43.739Z,97650.55
2019-02-22T10:55:11.454Z,97651.02
2019-02-22T10:57:37.787Z,97653.18
2019-02-22T11:00:10.015Z,97654.67
2019-02-22T11:02:36.320Z,97655.67
2019-02-22T11:05:02.412Z,97653.45
2019-02-22T11:07:30.544Z,97654.76
2019-02-22T11:09:56.664Z,97660.20
2019-02-22T11:12:22.891Z,97657.84
2019-02-22T11:14:49.055Z,97658.98
2019-02-22T11:17:15.260Z,97667.53
2019-02-22T11:19:45.693Z,97661.55
2019-02-22T11:22:09.672Z,97661.42
2019-02-22T11:24:37.688Z,97671.64
2019-02-22T11:27:04.764Z,97674.62
2019-02-22T11:29:41.218Z,97671.50
2019-02-22T11:32:08.706Z,97670.34
2019-02-22T11:35:05.987Z,97680.73
2019-02-22T11:37:32.331Z,97678.38
2019-02-22T11:39:58.482Z,97681.63
2019-02-22T11:42:24.687Z,97690.91
2019-02-22T11:44:51.029Z,97693.95
2019-02-22T11:47:17.248Z,97697.98
2019-02-22T11:49:43.612Z,97704.44
2019-02-22T11:52:18.760Z,97701.86
2019-02-22T11:54:45.256Z,97712.38
2019-02-22T11:57:11.500Z,97716.50
2019-02-22T11:59:37.605Z,97725.13
2019-02-22T12:02:03.819Z,97721.19
2019-02-22T12:04:30.137Z,97723.90
2019-02-22T12:06:56.345Z,97720.88
2019-02-22T12:09:22.540Z,97719.73
2019-02-22T12:11:48.877Z,97723.34
2019-02-22T12:14:15.397Z,97729.03
2019-02-22T12:16:42.604Z,97725.96
2019-02-22T12:19:08.808Z,97738.56
2019-02-22T12:21:35.082Z,97741.05
2019-02-22T12:24:01.381Z,97740.22
2019-02-22T12:26:27.632Z,97752.02
2019-02-22T12:28:53.854Z,97759.11
2019-02-22T12:31:20.081Z,97763.04
2019-02-22T12:33:46.374Z,97767.25
2019-02-22T12:36:12.667Z,97776.92
2019-02-22T12:38:38.897Z,97774.66
2019-02-22T12:41:10.867Z,97778.23
2019-02-22T12:43:39.061Z,97779.54
2019-02-22T12:46:05.205Z,97781.30
2019-02-22T12:48:31.427Z,97784.95
2019-02-22T12:50:57.614Z,97790.13
2019-02-22T12:53:23.841Z,97790.29
2019-02-22T12:55:49.968Z,97804.05
2019-02-22T12:58:16.227Z,97796.80
2019-02-22T13:00:42.294Z,97803.27
2019-02-22T13:03:08.599Z,97809.28
2019-02-22T13:05:34.962Z,97813.05
2019-02-22T13:08:01.129Z,97820.35
2019-02-22T13:10:27.284Z,97818.22
2019-02-22T13:12:53.493Z,97821.74
2019-02-22T13:15:19.630Z,97819.00
2019-02-22T13:17:46.185Z,97825.88
2019-02-22T13:20:16.952Z,97829.59
2019-02-22T13:25:46.403Z,97832.63
2019-02-22T13:28:12.620Z,97843.11
2019-02-22T13:30:38.931Z,97843.56
2019-02-22T13:33:05.133Z,97853.43
2019-02-22T13:35:31.372Z,97854.27
2019-02-22T13:37:58.867Z,97851.48
2019-02-22T13:40:52.493Z,97859.13
2019-02-22T13:43:18.556Z,97863.75
2019-02-22T13:47:37.223Z,97864.67
2019-02-22T13:48:32.376Z,97871.08
2019-02-22T13:50:58.840Z,97888.81
2019-02-22T13:53:31.993Z,97887.88
2019-02-22T13:56:08.241Z,97891.11
2019-02-22T13:58:41.518Z,97900.91
2019-02-22T14:03:58.488Z,97905.52
2019-02-22T14:06:35.530Z,97908.13
2019-02-22T14:12:15.859Z,97921.67
2019-02-22T14:14:42.023Z,97930.20
2019-02-22T14:17:08.420Z,97936.82
2019-02-22T14:19:42.501Z,97935.28
2019-02-22T14:22:08.614Z,97942.28
2019-02-22T14:24:34.943Z,97945.19
2019-02-22T14:27:02.020Z,97938.18
2019-02-22T14:29:28.617Z,97934.77
2019-02-22T14:31:55.061Z,97933.67
2019-02-22T14:34:21.320Z,97935.92
2019-02-22T14:36:47.879Z,97937.38
2019-02-22T14:39:15.148Z,97940.98
2019-02-22T14:41:41.422Z,97939.75
2019-02-22T14:44:09.941Z,97947.22
2019-02-22T14:46:36.175Z,97951.97
2019-02-22T14:49:02.342Z,97958.06
2019-02-22T14:51:28.494Z,97953.63
2019-02-22T14:53:54.638Z,97958.44
2019-02-22T14:56:20.908Z,97954.66
2019-02-22T14:58:47.503Z,97960.58
2019-02-22T15:01:13.654Z,97950.98
2019-02-22T15:03:39.819Z,97955.91
2019-02-22T15:06:05.955Z,97960.78
2019-02-22T15:08:32.258Z,97967.83
2019-02-22T15:10:58.409Z,97970.85
2019-02-22T15:13:24.530Z,97972.98
2019-02-22T15:16:07.742Z,97976.08
2019-02-22T15:18:33.996Z,97984.37
2019-02-22T15:21:00.202Z,97987.73
2019-02-22T15:23:27.473Z,97989.53
2019-02-22T15:25:54.045Z,97995.27
2019-02-22T15:28:20.254Z,97991.41
2019-02-22T15:30:46.762Z,98003.92
2019-02-22T15:33:12.985Z,98007.11
2019-02-22T15:35:39.230Z,98019.79
2019-02-22T15:38:06.787Z,98020.75
2019-02-22T15:40:39.296Z,98027.03
2019-02-22T15:43:05.038Z,98025.86
2019-02-22T15:45:31.232Z,98028.30
2019-02-22T15:47:57.698Z,98039.00
2019-02-22T15:50:23.923Z,98038.87
2019-02-22T15:52:50.408Z,98047.69
2019-02-22T15:55:16.687Z,98044.59
2019-02-22T15:57:42.863Z,98047.67
2019-02-22T16:00:18.550Z,98046.61
2019-02-22T16:02:44.895Z,98051.77
2019-02-22T16:05:13.200Z,98063.03
2019-02-22T16:07:44.726Z,98065.59
2019-02-22T16:10:08.593Z,98068.55
2019-02-22T16:12:36.610Z,98071.94
2019-02-22T16:15:05.682Z,98079.33
2019-02-22T16:17:32.552Z,98083.23
2019-02-22T16:19:59.691Z,98083.74
2019-02-22T16:22:25.855Z,98088.97
2019-02-22T16:24:52.043Z,98091.19
2019-02-22T16:27:18.336Z,98095.11
2019-02-22T16:29:44.447Z,98098.28
2019-02-22T16:32:10.675Z,98093.77
2019-02-22T16:34:43.504Z,98094.92
2019-02-22T16:37:05.014Z,98094.29
2019-02-22T16:39:31.172Z,98090.80
2019-02-22T16:41:57.373Z,98094.23
2019-02-22T16:44:23.481Z,98096.40
2019-02-22T16:46:49.687Z,98087.33
2019-02-22T16:49:15.785Z,98091.17
2019-02-22T16:51:42.032Z,98092.60
2019-02-22T16:54:08.120Z,98095.20
2019-02-22T16:56:34.322Z,98094.41
2019-02-22T16:59:00.492Z,98100.92
2019-02-22T17:01:27.793Z,98107.92
2019-02-22T17:03:54.191Z,98110.81
2019-02-22T17:06:20.440Z,98113.65
2019-02-22T17:08:47.738Z,98115.34
2019-02-22T17:11:15.337Z,98123.67
2019-02-22T17:13:41.720Z,98120.34
2019-02-22T17:16:08.233Z,98133.72
2019-02-22T17:18:38.388Z,98133.33
2019-02-22T17:21:05.110Z,98135.02
2019-02-22T17:23:33.436Z,98140.45
2019-02-22T17:25:59.614Z,98138.12
2019-02-22T17:28:25.739Z,98136.59
2019-02-22T17:30:51.923Z,98139.25
2019-02-22T17:33:18.046Z,98136.25
2019-02-22T17:35:45.006Z,98140.16
2019-02-22T17:38:14.316Z,98146.97
2019-02-22T17:40:40.501Z,98148.77
2019-02-22T17:43:06.741Z,98160.50
2019-02-22T17:45:33.739Z,98165.98
2019-02-22T17:48:00.276Z,98165.98
2019-02-22T17:50:26.487Z,98162.70
2019-02-22T17:52:52.740Z,98160.59
2019-02-22T17:55:21.721Z,98160.69
2019-02-22T17:57:48.680Z,98167.57
2019-02-22T18:00:23.927Z,98181.09
2019-02-22T18:02:50.117Z,98174.63
2019-02-22T18:05:16.205Z,98176.45
2019-02-22T18:07:42.402Z,98177.23
2019-02-22T18:10:09.500Z,98182.16
2019-02-22T18:12:36.366Z,98180.95
2019-02-22T18:15:04.506Z,98182.46
2019-02-22T18:17:30.704Z,98185.98
2019-02-22T18:19:57.415Z,98181.65
2019-02-22T18:22:26.253Z,98189.17
2019-02-22T18:24:52.528Z,98198.81
2019-02-22T18:27:22.443Z,98203.21
2019-02-22T18:29:48.693Z,98207.59
2019-02-22T18:32:15.755Z,98207.49
2019-02-22T18:34:42.748Z,98215.04
2019-02-22T18:37:10.092Z,98219.17
2019-02-22T18:39:36.306Z,98220.61
2019-02-22T18:42:05.412Z,98211.72
2019-02-22T18:44:31.623Z,98222.55
2019-02-22T18:46:57.732Z,98225.86
2019-02-22T18:49:23.896Z,98222.22
2019-02-22T18:51:50.265Z,98216.40
2019-02-22T18:54:16.750Z,98208.42
2019-02-22T18:56:42.942Z,98204.78
2019-02-22T18:59:09.212Z,98200.61
2019-02-22T19:01:37.343Z,98202.39
2019-02-22T19:04:03.758Z,98203.91
2019-02-22T19:06:30.607Z,98203.88
2019-02-22T19:08:56.851Z,98208.81
2019-02-22T19:11:23.487Z,98211.25
2019-02-22T19:13:53.671Z,98214.14
2019-02-22T19:16:21.802Z,98211.48
2019-02-22T19:18:49.983Z,98207.82
2019-02-22T19:21:16.211Z,98207.16
2019-02-22T19:23:42.398Z,98216.38
2019-02-22T19:26:08.504Z,98226.02
2019-02-22T19:28:35.202Z,98234.76
2019-02-22T19:31:01.308Z,98230.00
2019-02-22T19:33:27.495Z,98222.56
2019-02-22T19:35:53.581Z,98223.34
2019-02-22T19:38:20.532Z,98233.23
2019-02-22T19:40:48.190Z,98246.50
2019-02-22T19:43:17.531Z,98256.79
2019-02-22T19:45:43.623Z,98261.83
2019-02-22T19:48:11.559Z,98273.92
2019-02-22T19:50:41.415Z,98267.82
2019-02-22T19:53:06.016Z,98271.09
2019-02-22T19:55:32.107Z,98282.67
2019-02-22T19:57:58.296Z,98279.13
2019-02-22T20:00:26.426Z,98279.55
2019-02-22T20:02:52.640Z,98273.92
2019-02-22T20:05:18.838Z,98277.43
2019-02-22T20:07:45.097Z,98285.91
2019-02-22T20:10:19.365Z,98280.75
2019-02-22T20:12:47.741Z,98287.72
2019-02-22T20:15:15.737Z,98286.61
2019-02-22T20:17:53.007Z,98276.99
2019-02-22T20:20:12.792Z,98278.13
2019-02-22T20:22:39.002Z,98280.95
2019-02-22T20:25:05.668Z,98273.80
2019-02-22T20:27:33.058Z,98281.81
2019-02-22T20:30:01.246Z,98281.13
2019-02-22T20:32:27.946Z,98284.26
2019-02-22T20:34:54.169Z,98288.72
2019-02-22T20:37:20.722Z,98287.92
2019-02-22T20:39:50.765Z,98285.06
2019-02-22T20:42:19.153Z,98299.88
2019-02-22T20:44:46.595Z,98295.69
2019-02-22T20:47:12.782Z,98291.45
2019-02-22T20:49:39.280Z,98290.69
2019-02-22T20:52:06.494Z,98289.42
2019-02-22T20:54:32.707Z,98302.87
2019-02-22T20:57:00.816Z,98312.39
2019-02-22T20:59:30.753Z,98309.79
2019-02-22T21:01:57.294Z,98315.51
2019-02-22T21:04:23.595Z,98310.84
2019-02-22T21:06:49.700Z,98310.04
2019-02-22T21:09:15.879Z,98315.81
2019-02-22T21:11:42.094Z,98311.52
2019-02-22T21:14:11.374Z,98314.20
2019-02-22T21:16:37.905Z,98310.00
2019-02-22T21:19:06.093Z,98313.15
2019-02-22T21:21:32.320Z,98314.06
2019-02-22T21:23:58.502Z,98316.75
2019-02-22T21:26:26.229Z,98315.97
2019-02-22T21:28:52.507Z,98319.45
2019-02-22T21:31:18.597Z,98314.77
2019-02-22T21:33:44.840Z,98322.55
2019-02-22T21:36:10.945Z,98326.89
2019-02-22T21:38:37.136Z,98321.79
2019-02-22T21:41:03.245Z,98314.52
2019-02-22T21:43:31.333Z,98324.11
2019-02-22T21:46:01.673Z,98331.89
2019-02-22T21:48:31.230Z,98328.03
2019-02-22T21:51:00.499Z,98328.52
2019-02-22T21:53:26.951Z,98336.34
2019-02-22T21:55:53.139Z,98336.85
2019-02-22T21:58:19.353Z,98350.73
2019-02-22T22:00:45.567Z,98347.30
2019-02-22T22:03:11.689Z,98353.02
2019-02-22T22:05:37.889Z,98350.50
2019-02-22T22:08:04.970Z,98350.93
2019-02-22T22:10:31.367Z,98337.14
2019-02-22T22:12:57.443Z,98332.86
2019-02-22T22:15:23.649Z,98323.44
2019-02-22T22:17:49.740Z,98315.27
2019-02-22T22:20:16.349Z,98324.35
2019-02-22T22:22:42.495Z,98322.22
2019-02-22T22:25:12.725Z,98321.38
2019-02-22T22:27:38.909Z,98321.42
2019-02-22T22:30:07.815Z,98320.61
2019-02-22T22:32:33.999Z,98315.84
2019-02-22T22:35:00.342Z,98308.11
2019-02-22T22:37:27.139Z,98314.19
2019-02-22T22:39:53.395Z,98318.98
2019-02-22T22:42:20.388Z,98316.03
2019-02-22T22:44:46.941Z,98316.92
2019-02-22T22:47:13.087Z,98319.95
2019-02-22T22:49:39.227Z,98324.27
2019-02-22T22:52:05.627Z,98321.73
2019-02-22T22:54:32.867Z,98326.94
2019-02-22T22:56:59.357Z,98329.14
2019-02-22T22:59:27.720Z,98332.18
2019-02-22T23:01:54.623Z,98336.13
2019-02-22T23:04:20.801Z,98340.95
2019-02-22T23:06:47.142Z,98344.83
2019-02-22T23:09:20.144Z,98346.53
2019-02-22T23:11:46.809Z,98346.97
2019-02-22T23:14:13.039Z,98341.84
2019-02-22T23:16:39.266Z,98343.17
2019-02-22T23:19:05.380Z,98341.03
2019-02-22T23:21:31.669Z,98341.05
2019-02-22T23:23:57.930Z,98342.39
2019-02-22T23:26:24.210Z,98348.45
2019-02-22T23:28:50.305Z,98355.81
2019-02-22T23:31:16.568Z,98368.78
2019-02-22T23:33:42.692Z,98364.05
2019-02-22T23:36:08.867Z,98367.52
2019-02-22T23:38:36.054Z,98369.25
2019-02-22T23:41:02.257Z,98374.85
2019-02-22T23:43:29.307Z,98380.91
2019-02-22T23:45:55.515Z,98387.41
2019-02-22T23:48:21.666Z,98384.41
2019-02-22T23:50:47.898Z,98389.14
2019-02-22T23:53:14.141Z,98393.50
2019-02-22T23:55:40.296Z,98390.94
2019-02-22T23:58:06.438Z,98393.09
